Time;durP1;ratioP1;P1;durP2;ratioP2;P2;SDS_P1;SDS_P2;PMS_P1;PMS_P2;Temp;Humidity;BMP_temperature;BMP_pressure;BME280_temperature;BME280_humidity;BME280_pressure;Samples;Min_cycle;Max_cycle;Signal;HPM_P1;HPM_P2
2021/07/15 00:02:16;;;;;;;7.55;5.78;;;21.00;99.90;;;;;;4993104;28;20038;-79
2021/07/15 00:04:42;;;;;;;7.93;5.50;;;21.00;99.90;;;;;;4992062;28;20418;-79
2021/07/15 00:07:09;;;;;;;9.00;5.70;;;21.00;99.90;;;;;;4998063;28;20027;-78
2021/07/15 00:09:36;;;;;;;10.50;6.00;;;21.00;99.90;;;;;;4993163;28;20042;-79
2021/07/15 00:12:03;;;;;;;9.20;6.00;;;21.00;99.90;;;;;;4992681;28;20026;-79
2021/07/15 00:14:29;;;;;;;10.15;5.70;;;21.00;99.90;;;;;;4992775;28;20050;-80
2021/07/15 00:16:57;;;;;;;10.98;5.97;;;21.00;99.90;;;;;;5009664;28;20030;-80
2021/07/15 00:19:26;;;;;;;9.63;5.72;;;21.00;99.90;;;;;;5012102;28;20037;-79
2021/07/15 00:21:52;;;;;;;10.77;5.85;;;21.00;99.90;;;;;;5012227;28;20068;-78
2021/07/15 00:24:18;;;;;;;7.65;5.93;;;21.00;99.90;;;;;;5009831;28;20053;-78
2021/07/15 00:26:49;;;;;;;8.70;5.95;;;20.90;99.90;;;;;;4991745;28;20022;-78
2021/07/15 00:29:14;;;;;;;9.27;5.78;;;21.00;99.90;;;;;;4991873;28;20035;-78
2021/07/15 00:31:40;;;;;;;9.48;5.78;;;20.90;99.90;;;;;;5005859;28;20045;-78
2021/07/15 00:34:06;;;;;;;7.78;5.82;;;20.90;99.90;;;;;;4992493;28;20038;-79
2021/07/15 00:36:32;;;;;;;9.48;5.60;;;20.90;99.90;;;;;;5003054;28;20494;-78
2021/07/15 00:38:58;;;;;;;7.38;5.35;;;20.90;99.90;;;;;;5011344;28;20221;-78
2021/07/15 00:41:24;;;;;;;9.80;5.63;;;20.90;99.90;;;;;;5012202;28;20112;-78
2021/07/15 00:43:49;;;;;;;10.70;5.70;;;20.90;99.90;;;;;;5009510;28;20026;-79
2021/07/15 00:46:15;;;;;;;9.70;5.75;;;20.90;99.90;;;;;;4992704;28;20037;-79
2021/07/15 00:48:41;;;;;;;9.77;5.88;;;20.90;99.90;;;;;;4992700;28;20581;-79
2021/07/15 00:51:07;;;;;;;10.35;5.70;;;20.90;99.90;;;;;;4992046;28;20537;-79
2021/07/15 00:53:33;;;;;;;7.05;5.28;;;20.90;99.90;;;;;;4992317;28;20026;-79
2021/07/15 00:55:59;;;;;;;12.13;5.97;;;20.90;99.90;;;;;;5006182;28;20022;-78
2021/07/15 00:58:25;;;;;;;8.93;5.35;;;20.90;99.90;;;;;;5011771;28;20022;-79
2021/07/15 01:00:51;;;;;;;8.95;5.65;;;20.90;99.90;;;;;;5011308;28;20034;-78
2021/07/15 01:03:19;;;;;;;8.88;5.20;;;20.90;99.90;;;;;;5011841;28;20030;-78
2021/07/15 01:05:49;;;;;;;8.43;5.43;;;20.90;99.90;;;;;;4998970;28;20034;-79
2021/07/15 01:08:15;;;;;;;7.18;5.50;;;20.90;99.90;;;;;;4996816;28;20034;-80
2021/07/15 01:10:54;;;;;;;8.55;5.47;;;20.80;99.90;;;;;;5011618;28;20038;-78
2021/07/15 01:13:39;;;;;;;8.43;5.00;;;20.80;99.90;;;;;;5011691;28;20033;-78
2021/07/15 01:16:23;;;;;;;8.55;5.57;;;20.80;99.90;;;;;;5010864;28;20026;-79
2021/07/15 01:19:05;;;;;;;8.68;5.28;;;20.80;99.90;;;;;;5011351;28;20033;-78
2021/07/15 01:21:55;;;;;;;8.82;5.63;;;20.80;99.90;;;;;;5010054;28;20064;-79
2021/07/15 01:24:39;;;;;;;10.48;5.55;;;20.80;99.90;;;;;;5011249;28;20490;-78
2021/07/15 01:27:26;;;;;;;8.48;5.15;;;20.80;99.90;;;;;;5011381;28;20144;-79
2021/07/15 01:30:11;;;;;;;9.07;5.75;;;20.80;99.90;;;;;;5009654;28;20046;-80
2021/07/15 01:33:00;;;;;;;7.78;5.72;;;20.80;99.90;;;;;;4993022;28;20026;-78
2021/07/15 01:35:33;;;;;;;8.65;5.50;;;20.80;99.90;;;;;;4996570;28;20110;-79
2021/07/15 01:38:02;;;;;;;7.35;5.45;;;20.80;99.90;;;;;;4990358;28;20406;-79
2021/07/15 01:40:38;;;;;;;8.55;5.10;;;20.80;99.90;;;;;;4990717;28;20100;-77
2021/07/15 01:43:08;;;;;;;7.88;4.90;;;20.80;99.90;;;;;;4991728;28;20027;-78
2021/07/15 01:45:34;;;;;;;9.10;5.63;;;20.80;99.90;;;;;;4991684;28;20092;-78
2021/07/15 01:48:01;;;;;;;8.50;5.30;;;20.80;99.90;;;;;;4991525;28;20027;-78
2021/07/15 01:50:27;;;;;;;7.40;5.07;;;20.70;99.90;;;;;;4992577;28;20054;-79
2021/07/15 01:52:53;;;;;;;9.23;5.70;;;20.80;99.90;;;;;;4991412;28;20080;-79
2021/07/15 01:55:20;;;;;;;7.03;4.97;;;20.80;99.90;;;;;;5000174;28;20034;-79
2021/07/15 01:57:48;;;;;;;7.47;5.45;;;20.70;99.90;;;;;;5011317;28;20014;-79
2021/07/15 02:00:14;;;;;;;6.95;5.05;;;20.70;99.90;;;;;;5011200;28;20033;-78
2021/07/15 02:02:41;;;;;;;10.48;5.80;;;20.70;99.90;;;;;;4998583;28;20031;-79
2021/07/15 02:05:08;;;;;;;12.90;5.32;;;20.70;99.90;;;;;;5008575;28;20066;-79
2021/07/15 02:07:38;;;;;;;8.02;5.03;;;20.70;99.90;;;;;;4997791;28;20499;-79
2021/07/15 02:10:07;;;;;;;7.70;4.80;;;20.70;99.90;;;;;;5012454;28;20045;-78
2021/07/15 02:12:34;;;;;;;8.68;5.18;;;20.70;99.90;;;;;;5014897;28;20474;-78
2021/07/15 02:15:00;;;;;;;7.40;4.90;;;20.80;99.90;;;;;;5007392;28;20026;-78
2021/07/15 02:17:25;;;;;;;7.10;5.20;;;20.70;99.90;;;;;;4995056;28;20117;-78
2021/07/15 02:19:52;;;;;;;9.52;4.90;;;20.70;99.90;;;;;;4994781;28;20030;-79
2021/07/15 02:22:19;;;;;;;8.73;5.28;;;20.70;99.90;;;;;;4995015;28;20061;-79
2021/07/15 02:24:47;;;;;;;7.75;4.55;;;20.70;99.90;;;;;;4995198;28;20034;-80
2021/07/15 02:27:14;;;;;;;8.77;5.10;;;20.70;99.90;;;;;;5008369;28;20030;-79
2021/07/15 02:29:41;;;;;;;5.93;4.82;;;20.70;99.90;;;;;;5013022;28;20052;-78
2021/07/15 02:32:09;;;;;;;7.68;4.97;;;20.70;99.90;;;;;;5013879;28;20036;-78
2021/07/15 02:34:54;;;;;;;7.30;4.78;;;20.70;99.90;;;;;;5014043;28;20042;-78
2021/07/15 02:37:25;;;;;;;7.63;4.68;;;20.70;99.90;;;;;;5013211;28;20033;-79
2021/07/15 02:39:50;;;;;;;6.80;4.85;;;20.70;99.90;;;;;;5012617;28;20022;-80
2021/07/15 02:42:16;;;;;;;7.22;5.05;;;20.70;99.90;;;;;;5014437;28;20057;-78
2021/07/15 02:44:43;;;;;;;8.15;5.00;;;20.70;99.90;;;;;;5013883;28;20096;-78
2021/07/15 02:47:09;;;;;;;6.93;4.63;;;20.70;99.90;;;;;;5012677;28;20029;-79
2021/07/15 02:49:39;;;;;;;9.23;5.32;;;20.60;99.90;;;;;;5013813;28;20033;-79
2021/07/15 02:52:05;;;;;;;7.55;4.78;;;20.70;99.90;;;;;;5013919;28;20022;-79
2021/07/15 02:54:31;;;;;;;7.25;5.18;;;20.60;99.90;;;;;;5013990;28;20030;-79
2021/07/15 02:57:19;;;;;;;7.72;5.00;;;20.70;99.90;;;;;;5013820;28;20084;-79
2021/07/15 02:59:56;;;;;;;9.15;4.85;;;20.70;99.90;;;;;;5009228;28;20437;-79
2021/07/15 03:02:29;;;;;;;8.40;5.05;;;20.70;99.90;;;;;;4994335;28;20014;-77
2021/07/15 03:05:18;;;;;;;7.38;4.32;;;20.60;99.90;;;;;;4994034;28;20030;-78
2021/07/15 03:07:54;;;;;;;7.90;4.80;;;20.70;99.90;;;;;;5000948;28;20034;-80
2021/07/15 03:10:21;;;;;;;6.35;4.90;;;20.60;99.90;;;;;;5014010;28;20113;-78
2021/07/15 03:12:48;;;;;;;6.88;4.88;;;20.60;99.90;;;;;;4995965;28;20026;-77
2021/07/15 03:15:14;;;;;;;8.00;4.65;;;20.60;99.90;;;;;;4998638;28;20033;-78
2021/07/15 03:17:45;;;;;;;8.27;4.85;;;20.60;99.90;;;;;;4994280;28;20031;-78
2021/07/15 03:20:42;;;;;;;6.70;4.40;;;20.60;99.90;;;;;;4993053;28;20030;-79
2021/07/15 03:23:16;;;;;;;8.85;4.90;;;20.60;99.90;;;;;;4992573;28;20122;-79
2021/07/15 03:25:46;;;;;;;7.53;4.63;;;20.60;99.90;;;;;;5001567;28;20022;-79
2021/07/15 03:28:14;;;;;;;6.00;4.35;;;20.60;99.90;;;;;;5010838;28;20414;-78
2021/07/15 03:30:39;;;;;;;8.02;4.47;;;20.60;99.90;;;;;;5011646;28;20116;-78
2021/07/15 03:33:06;;;;;;;7.90;4.80;;;20.60;99.90;;;;;;5011876;28;20479;-78
2021/07/15 03:35:33;;;;;;;7.25;4.68;;;20.60;99.90;;;;;;5000708;28;20386;-78
2021/07/15 03:38:01;;;;;;;8.10;4.85;;;20.60;99.90;;;;;;4993707;28;20033;-79
2021/07/15 03:40:28;;;;;;;8.35;4.70;;;20.60;99.90;;;;;;5004218;28;20031;-78
2021/07/15 03:42:54;;;;;;;6.72;4.80;;;20.50;99.90;;;;;;5012919;28;20025;-79
2021/07/15 03:45:22;;;;;;;7.22;4.75;;;20.50;99.90;;;;;;5003428;28;20059;-79
2021/07/15 03:47:51;;;;;;;8.25;4.72;;;20.50;99.90;;;;;;4993547;28;20046;-79
2021/07/15 03:50:22;;;;;;;8.40;5.15;;;20.50;99.90;;;;;;4993587;28;20117;-78
2021/07/15 03:52:50;;;;;;;5.45;4.20;;;20.50;99.90;;;;;;4993317;28;20019;-79
2021/07/15 03:55:17;;;;;;;8.98;4.85;;;20.50;99.90;;;;;;4993316;28;20049;-79
2021/07/15 03:57:44;;;;;;;7.13;4.68;;;20.50;99.90;;;;;;4993714;28;20030;-80
2021/07/15 04:00:12;;;;;;;9.52;4.45;;;20.50;99.90;;;;;;5001241;28;20041;-79
2021/07/15 04:02:40;;;;;;;7.15;4.50;;;20.50;99.90;;;;;;5012883;28;20022;-79
2021/07/15 04:05:08;;;;;;;7.15;4.38;;;20.50;99.90;;;;;;5009279;28;20761;-79
2021/07/15 04:07:34;;;;;;;8.30;4.80;;;20.50;99.90;;;;;;4993117;28;20030;-79
2021/07/15 04:10:01;;;;;;;8.23;4.75;;;20.50;99.90;;;;;;4994164;28;20453;-78
2021/07/15 04:12:28;;;;;;;8.43;4.88;;;20.50;99.90;;;;;;5012705;28;20398;-79
2021/07/15 04:15:11;;;;;;;8.50;4.97;;;20.50;99.90;;;;;;5007204;28;20030;-79
2021/07/15 04:17:45;;;;;;;6.28;4.53;;;20.50;99.90;;;;;;5012438;28;20036;-79
2021/07/15 04:20:11;;;;;;;7.00;4.40;;;20.50;99.90;;;;;;5012661;28;20033;-79
2021/07/15 04:22:41;;;;;;;9.77;4.70;;;20.50;99.90;;;;;;5011334;28;20022;-80
2021/07/15 04:25:10;;;;;;;6.82;4.30;;;20.50;99.90;;;;;;5004194;28;20042;-79
2021/07/15 04:27:36;;;;;;;7.72;5.03;;;20.50;99.90;;;;;;5012166;28;20781;-79
2021/07/15 04:30:07;;;;;;;8.85;4.50;;;20.50;99.90;;;;;;5009368;28;20038;-79
2021/07/15 04:32:49;;;;;;;7.18;4.78;;;20.40;99.90;;;;;;5012056;28;20029;-78
2021/07/15 04:35:15;;;;;;;7.45;4.45;;;20.40;99.90;;;;;;4990484;28;20037;-79
2021/07/15 04:37:45;;;;;;;7.32;4.40;;;20.50;99.90;;;;;;4992425;28;20054;-78
2021/07/15 04:40:16;;;;;;;8.75;4.50;;;20.50;99.90;;;;;;4992819;28;20023;-79
2021/07/15 04:42:42;;;;;;;7.80;4.57;;;20.50;99.90;;;;;;4992750;28;20065;-79
2021/07/15 04:45:10;;;;;;;9.07;5.10;;;20.50;99.90;;;;;;4992065;28;20508;-79
2021/07/15 04:47:40;;;;;;;8.23;4.68;;;20.50;99.90;;;;;;4992678;28;20050;-78
2021/07/15 04:50:10;;;;;;;6.50;4.35;;;20.50;99.90;;;;;;4999203;28;20053;-79
2021/07/15 04:52:38;;;;;;;8.63;4.78;;;20.50;99.90;;;;;;5011943;28;20734;-79
2021/07/15 04:55:05;;;;;;;7.18;4.55;;;20.50;99.90;;;;;;5011349;28;20075;-78
2021/07/15 04:57:33;;;;;;;9.40;4.65;;;20.50;99.90;;;;;;4995705;28;20557;-78
2021/07/15 04:59:59;;;;;;;8.73;5.03;;;20.50;99.90;;;;;;4993005;28;20034;-79
2021/07/15 05:02:25;;;;;;;8.88;4.90;;;20.40;99.90;;;;;;4992351;28;20105;-79
2021/07/15 05:04:51;;;;;;;8.18;4.47;;;20.40;99.90;;;;;;4997884;28;20105;-79
2021/07/15 05:07:16;;;;;;;7.68;4.63;;;20.40;99.90;;;;;;5011066;28;20140;-79
2021/07/15 05:09:42;;;;;;;10.00;4.45;;;20.40;99.90;;;;;;5011960;28;20045;-78
2021/07/15 05:12:08;;;;;;;6.85;4.65;;;20.40;99.90;;;;;;5011492;28;20034;-79
2021/07/15 05:14:40;;;;;;;7.43;4.70;;;20.50;99.90;;;;;;5008019;28;20033;-78
2021/07/15 05:17:08;;;;;;;6.68;4.43;;;20.50;99.90;;;;;;4992036;28;20406;-79
2021/07/15 05:19:34;;;;;;;8.68;5.20;;;20.50;99.90;;;;;;4995119;28;20030;-79
2021/07/15 05:21:59;;;;;;;9.75;5.07;;;20.40;99.90;;;;;;5011115;28;20033;-79
2021/07/15 05:24:25;;;;;;;7.38;4.70;;;20.40;99.90;;;;;;5010050;28;20022;-79
2021/07/15 05:26:51;;;;;;;8.50;4.75;;;20.40;99.90;;;;;;4997813;28;20050;-79
2021/07/15 05:29:16;;;;;;;7.00;4.90;;;20.50;99.90;;;;;;4992810;28;20044;-79
2021/07/15 05:31:42;;;;;;;7.78;5.10;;;20.40;99.90;;;;;;4992829;28;20027;-78
2021/07/15 05:34:08;;;;;;;9.30;4.93;;;20.40;99.90;;;;;;4991823;28;20026;-79
2021/07/15 05:36:34;;;;;;;8.38;4.95;;;20.50;99.90;;;;;;5009232;28;20504;-78
2021/07/15 05:39:00;;;;;;;8.48;5.05;;;20.40;99.90;;;;;;5011210;28;20060;-78
2021/07/15 05:41:25;;;;;;;7.10;4.55;;;20.40;99.90;;;;;;5012670;28;20058;-79
2021/07/15 05:43:51;;;;;;;8.95;5.10;;;20.50;99.90;;;;;;5014700;28;20025;-78
2021/07/15 05:46:17;;;;;;;7.78;4.97;;;20.50;99.90;;;;;;5000557;28;20061;-79
2021/07/15 05:48:42;;;;;;;7.40;4.85;;;20.50;99.90;;;;;;4996248;28;20474;-77
2021/07/15 05:51:08;;;;;;;9.25;5.13;;;20.50;99.90;;;;;;5011341;28;20038;-78
2021/07/15 05:53:34;;;;;;;11.93;6.47;;;20.50;99.90;;;;;;5015365;28;20463;-87
2021/07/15 05:55:59;;;;;;;13.52;6.70;;;20.40;99.90;;;;;;5002265;28;20030;-81
2021/07/15 05:58:25;;;;;;;16.40;7.00;;;20.40;99.90;;;;;;4996480;28;20426;-81
2021/07/15 06:00:51;;;;;;;14.40;6.88;;;20.40;99.90;;;;;;4995268;28;20533;-83
2021/07/15 06:03:16;;;;;;;15.82;7.25;;;20.40;99.90;;;;;;4995682;28;20030;-79
2021/07/15 06:05:42;;;;;;;14.80;6.72;;;20.40;99.90;;;;;;4996844;28;20467;-84
2021/07/15 06:08:08;;;;;;;12.73;6.45;;;20.40;99.90;;;;;;4994963;28;20038;-77
2021/07/15 06:10:34;;;;;;;13.68;6.07;;;20.40;99.90;;;;;;4994881;28;20089;-75
2021/07/15 06:12:59;;;;;;;15.95;7.18;;;20.40;99.90;;;;;;4993837;28;20084;-75
2021/07/15 06:15:25;;;;;;;15.48;6.68;;;20.40;99.90;;;;;;4996022;28;20028;-75
2021/07/15 06:17:51;;;;;;;15.70;7.03;;;20.40;99.90;;;;;;4995166;28;20023;-75
2021/07/15 06:20:17;;;;;;;12.60;6.78;;;20.40;99.90;;;;;;4995182;28;20030;-77
2021/07/15 06:22:44;;;;;;;13.85;7.38;;;20.40;99.90;;;;;;5012788;28;20061;-77
2021/07/15 06:25:11;;;;;;;13.63;7.05;;;20.40;99.90;;;;;;5012738;28;20036;-75
2021/07/15 06:27:38;;;;;;;16.02;7.10;;;20.40;99.90;;;;;;4997149;28;20046;-76
2021/07/15 06:30:08;;;;;;;17.13;7.45;;;20.40;99.90;;;;;;4994474;28;20042;-75
2021/07/15 06:32:34;;;;;;;17.70;7.10;;;20.30;99.90;;;;;;4995309;28;20422;-78
2021/07/15 06:34:59;;;;;;;17.80;6.75;;;20.40;99.90;;;;;;4995640;28;20105;-75
2021/07/15 06:37:32;;;;;;;17.42;7.28;;;20.40;99.90;;;;;;4994611;28;20018;-75
2021/07/15 06:39:59;;;;;;;17.35;6.75;;;20.40;99.90;;;;;;4987691;28;20604;-75
2021/07/15 06:42:25;;;;;;;21.60;7.35;;;20.40;99.90;;;;;;5014444;28;20033;-76
2021/07/15 06:44:51;;;;;;;15.32;7.43;;;20.40;99.90;;;;;;4996718;28;20552;-72
2021/07/15 06:47:17;;;;;;;17.23;7.30;;;20.40;99.90;;;;;;4994786;28;20105;-76
2021/07/15 06:49:43;;;;;;;11.93;6.55;;;20.50;99.90;;;;;;4994851;28;20471;-76
2021/07/15 06:52:09;;;;;;;17.45;7.20;;;20.50;99.90;;;;;;4994451;28;20467;-76
2021/07/15 06:54:35;;;;;;;17.00;7.50;;;20.60;99.90;;;;;;4988488;28;20035;-73
2021/07/15 06:57:00;;;;;;;16.48;7.53;;;20.70;99.90;;;;;;4992548;28;20033;-73
2021/07/15 06:59:26;;;;;;;18.63;6.85;;;20.70;99.90;;;;;;4975119;28;20541;-79
2021/07/15 07:01:52;;;;;;;16.52;7.63;;;20.70;99.90;;;;;;4974714;28;20387;-74
2021/07/15 07:04:18;;;;;;;19.15;7.72;;;20.80;99.90;;;;;;4974321;28;20034;-77
2021/07/15 07:06:43;;;;;;;16.23;7.40;;;20.90;99.90;;;;;;4974691;28;20388;-77
2021/07/15 07:09:09;;;;;;;15.48;7.22;;;21.00;99.90;;;;;;4974612;28;20035;-73
2021/07/15 07:11:35;;;;;;;14.10;7.22;;;21.00;99.90;;;;;;4974941;28;20097;-76
2021/07/15 07:14:00;;;;;;;17.77;7.93;;;21.00;99.90;;;;;;4974492;28;20039;-76
2021/07/15 07:16:26;;;;;;;15.13;7.22;;;21.00;99.90;;;;;;4974829;28;20547;-77
2021/07/15 07:18:51;;;;;;;16.50;7.50;;;21.10;99.90;;;;;;4974430;28;20019;-79
2021/07/15 07:21:17;;;;;;;13.18;6.97;;;21.10;99.90;;;;;;4974752;28;20059;-76
2021/07/15 07:23:43;;;;;;;15.43;7.18;;;21.20;99.90;;;;;;4974880;28;20027;-77
2021/07/15 07:26:08;;;;;;;13.10;6.68;;;21.30;99.90;;;;;;4974246;28;20031;-78
2021/07/15 07:28:34;;;;;;;16.65;7.30;;;21.30;99.90;;;;;;4974420;28;20033;-78
2021/07/15 07:31:00;;;;;;;12.20;6.70;;;21.30;99.90;;;;;;4974314;28;20031;-78
2021/07/15 07:33:25;;;;;;;14.23;7.35;;;21.30;99.90;;;;;;4974335;28;20046;-79
2021/07/15 07:35:51;;;;;;;14.80;6.85;;;21.40;99.90;;;;;;4974195;28;20038;-79
2021/07/15 07:38:17;;;;;;;14.13;7.10;;;21.40;99.90;;;;;;4974326;28;20035;-78
2021/07/15 07:40:43;;;;;;;13.23;6.90;;;21.40;99.90;;;;;;4974616;28;20078;-79
2021/07/15 07:43:09;;;;;;;12.18;6.03;;;21.50;99.90;;;;;;4974133;28;20023;-80
2021/07/15 07:45:34;;;;;;;11.98;6.20;;;21.50;99.90;;;;;;4974306;28;20031;-80
2021/07/15 07:48:00;;;;;;;11.10;6.38;;;21.40;99.90;;;;;;4973849;28;20030;-78
2021/07/15 07:50:27;;;;;;;13.45;6.93;;;21.50;99.90;;;;;;4974074;28;20055;-73
2021/07/15 07:52:55;;;;;;;15.63;6.50;;;21.50;99.90;;;;;;4973816;28;20491;-73
2021/07/15 07:55:21;;;;;;;16.15;6.90;;;21.50;99.90;;;;;;4973961;28;20050;-73
2021/07/15 07:57:47;;;;;;;13.18;6.60;;;21.40;99.90;;;;;;4973760;28;20117;-74
2021/07/15 08:00:15;;;;;;;12.60;6.35;;;21.40;99.90;;;;;;4974280;28;20098;-74
2021/07/15 08:02:45;;;;;;;15.05;6.82;;;21.40;99.90;;;;;;4974302;28;20498;-73
2021/07/15 08:05:13;;;;;;;11.40;6.30;;;21.40;99.90;;;;;;4973403;28;20027;-74
2021/07/15 08:07:39;;;;;;;14.63;6.80;;;21.40;99.90;;;;;;4988855;28;20109;-72
2021/07/15 08:10:10;;;;;;;12.88;6.28;;;21.40;99.90;;;;;;4973635;28;20133;-80
2021/07/15 08:12:39;;;;;;;11.45;6.18;;;21.50;99.90;;;;;;4973658;28;20037;-79
2021/07/15 08:15:06;;;;;;;12.98;6.07;;;21.50;99.90;;;;;;4973575;28;20027;-79
2021/07/15 08:17:32;;;;;;;16.27;6.43;;;21.50;99.90;;;;;;4973718;28;20023;-78
2021/07/15 08:19:58;;;;;;;13.30;6.38;;;21.60;99.90;;;;;;4973335;28;20046;-79
2021/07/15 08:22:23;;;;;;;9.93;5.90;;;21.70;99.90;;;;;;4973869;28;20034;-74
2021/07/15 08:24:49;;;;;;;12.43;6.53;;;21.80;99.90;;;;;;4973228;28;20106;-75
2021/07/15 08:27:15;;;;;;;11.20;6.05;;;21.70;99.90;;;;;;4973735;28;20026;-75
2021/07/15 08:29:41;;;;;;;13.45;6.50;;;21.60;99.90;;;;;;4973586;28;20039;-74
2021/07/15 08:32:07;;;;;;;11.50;5.65;;;21.60;99.90;;;;;;4973209;28;20039;-73
2021/07/15 08:34:33;;;;;;;11.15;6.38;;;21.50;99.90;;;;;;4973280;28;20074;-73
2021/07/15 08:36:59;;;;;;;11.05;6.18;;;21.50;99.90;;;;;;4973136;28;20459;-73
2021/07/15 08:39:25;;;;;;;13.40;6.00;;;21.50;99.90;;;;;;4973318;28;20089;-73
2021/07/15 08:41:51;;;;;;;14.98;6.32;;;21.40;99.90;;;;;;4972994;28;20015;-78
2021/07/15 08:44:17;;;;;;;12.68;6.18;;;21.40;99.90;;;;;;4973195;28;20026;-73
2021/07/15 08:46:44;;;;;;;11.40;6.43;;;21.40;99.90;;;;;;4973428;28;20022;-73
2021/07/15 08:49:12;;;;;;;12.98;6.15;;;21.40;99.90;;;;;;4972775;28;20431;-80
2021/07/15 08:51:38;;;;;;;10.23;5.78;;;21.30;99.90;;;;;;4973256;28;20368;-78
2021/07/15 08:54:04;;;;;;;10.55;5.72;;;21.30;99.90;;;;;;4973026;28;20031;-79
2021/07/15 08:56:38;;;;;;;9.13;6.00;;;21.40;99.90;;;;;;4973022;28;20041;-79
2021/07/15 08:59:06;;;;;;;12.00;6.35;;;21.30;99.90;;;;;;4972827;28;20023;-79
2021/07/15 09:01:33;;;;;;;11.27;5.88;;;21.40;99.90;;;;;;4972967;28;20054;-76
2021/07/15 09:04:00;;;;;;;12.38;5.97;;;21.40;99.90;;;;;;4972662;28;20038;-74
2021/07/15 09:06:26;;;;;;;9.32;5.50;;;21.40;99.90;;;;;;4972935;28;20038;-75
2021/07/15 09:08:53;;;;;;;12.93;6.43;;;21.40;99.90;;;;;;4972746;28;20027;-79
2021/07/15 09:11:20;;;;;;;12.07;6.38;;;21.40;99.90;;;;;;4972681;28;20031;-79
2021/07/15 09:13:46;;;;;;;11.98;6.63;;;21.40;99.90;;;;;;4972862;28;20034;-74
2021/07/15 09:16:17;;;;;;;14.07;6.50;;;21.40;99.90;;;;;;4972721;28;20106;-75
2021/07/15 09:19:02;;;;;;;9.90;6.53;;;21.40;99.90;;;;;;4973050;28;20029;-79
2021/07/15 09:21:32;;;;;;;15.30;6.50;;;21.30;99.90;;;;;;4972873;28;20022;-77
2021/07/15 09:23:58;;;;;;;14.40;6.10;;;21.30;99.90;;;;;;4987237;28;20026;-78
2021/07/15 09:26:26;;;;;;;14.73;6.50;;;21.30;99.90;;;;;;4972545;28;20053;-77
2021/07/15 09:28:52;;;;;;;11.65;5.57;;;21.40;99.90;;;;;;4972168;28;20415;-79
2021/07/15 09:31:20;;;;;;;9.98;5.75;;;21.40;99.90;;;;;;4972481;28;20029;-79
2021/07/15 09:33:47;;;;;;;14.60;5.90;;;21.40;99.90;;;;;;4972371;28;20041;-75
2021/07/15 09:36:16;;;;;;;11.65;6.43;;;21.40;99.90;;;;;;4972926;28;20420;-79
2021/07/15 09:38:43;;;;;;;10.82;6.20;;;21.40;99.90;;;;;;4972855;28;20023;-78
2021/07/15 09:41:14;;;;;;;11.75;6.28;;;21.40;99.90;;;;;;4972250;28;20031;-77
2021/07/15 09:43:41;;;;;;;12.85;6.10;;;21.40;99.90;;;;;;4972715;28;20034;-79
2021/07/15 09:46:13;;;;;;;12.10;6.32;;;21.40;99.90;;;;;;4972372;28;20034;-74
2021/07/15 09:48:40;;;;;;;9.82;5.53;;;21.40;99.90;;;;;;4972296;28;20023;-76
2021/07/15 09:51:11;;;;;;;11.10;6.00;;;21.40;99.90;;;;;;4972197;28;20121;-76
2021/07/15 09:53:36;;;;;;;9.70;5.97;;;21.40;99.90;;;;;;4972424;28;20038;-75
2021/07/15 09:56:08;;;;;;;11.48;6.47;;;21.40;99.90;;;;;;4972614;28;20031;-74
2021/07/15 09:58:42;;;;;;;12.13;6.22;;;21.40;99.90;;;;;;4972310;28;20392;-74
2021/07/15 10:01:09;;;;;;;;;;;21.50;99.90;;;;;;4972528;28;20063;-77
2021/07/15 10:03:46;;;;;;;12.10;6.00;;;21.50;99.90;;;;;;4972324;28;20331;-79
2021/07/15 10:06:14;;;;;;;9.82;6.15;;;21.50;99.90;;;;;;4972502;28;20170;-80
2021/07/15 10:08:42;;;;;;;12.27;6.00;;;21.50;99.90;;;;;;4972020;28;20042;-80
2021/07/15 10:11:28;;;;;;;11.88;5.93;;;21.50;99.90;;;;;;4972093;28;20494;-79
2021/07/15 10:14:04;;;;;;;14.10;6.63;;;21.50;99.90;;;;;;4972017;28;20050;-79
2021/07/15 10:16:32;;;;;;;9.90;5.93;;;21.60;99.90;;;;;;4972221;28;20019;-79
2021/07/15 10:18:59;;;;;;;12.55;6.70;;;21.60;99.90;;;;;;4971924;28;20031;-79
2021/07/15 10:21:31;;;;;;;13.73;6.85;;;21.60;99.90;;;;;;4972225;28;20463;-80
2021/07/15 10:23:58;;;;;;;14.45;6.30;;;21.60;99.90;;;;;;4971968;28;20059;-79
2021/07/15 10:26:24;;;;;;;11.30;6.13;;;21.60;99.90;;;;;;4972351;28;20027;-79
2021/07/15 10:28:52;;;;;;;11.73;6.22;;;21.60;99.90;;;;;;4973399;28;20034;-79
2021/07/15 10:31:19;;;;;;;12.38;5.93;;;21.60;99.90;;;;;;4975593;28;20023;-79
2021/07/15 10:33:46;;;;;;;9.93;6.07;;;21.60;99.90;;;;;;4975878;28;20027;-79
2021/07/15 10:36:12;;;;;;;14.85;6.63;;;21.70;99.90;;;;;;4976024;28;20031;-80
2021/07/15 10:38:46;;;;;;;10.30;6.63;;;21.60;99.90;;;;;;4975407;28;20431;-79
2021/07/15 10:41:12;;;;;;;10.18;6.35;;;21.70;99.90;;;;;;4975851;28;20030;-79
2021/07/15 10:43:39;;;;;;;11.25;6.47;;;21.70;99.90;;;;;;4975375;28;20031;-76
2021/07/15 10:46:06;;;;;;;11.27;6.97;;;21.70;99.90;;;;;;4975147;28;20401;-76
2021/07/15 10:48:35;;;;;;;13.55;6.80;;;21.70;99.90;;;;;;4975258;28;20062;-79
2021/07/15 10:51:02;;;;;;;12.15;6.55;;;21.70;99.90;;;;;;4974948;28;20037;-78
2021/07/15 10:53:29;;;;;;;9.48;6.35;;;21.70;99.90;;;;;;4975466;28;20420;-78
2021/07/15 10:55:56;;;;;;;11.43;7.07;;;21.70;99.90;;;;;;4975025;28;20360;-79
2021/07/15 10:58:48;;;;;;;13.50;7.05;;;21.70;99.90;;;;;;4975080;28;20026;-79
2021/07/15 11:01:40;;;;;;;12.85;6.72;;;21.80;99.90;;;;;;4975425;28;20030;-75
2021/07/15 11:04:14;;;;;;;9.88;6.60;;;21.80;99.90;;;;;;4975004;28;20030;-78
2021/07/15 11:06:47;;;;;;;10.30;7.15;;;21.80;99.90;;;;;;4975004;28;20019;-78
2021/07/15 11:09:33;;;;;;;14.30;7.18;;;21.80;99.90;;;;;;4975105;28;20073;-77
2021/07/15 11:12:02;;;;;;;14.65;6.78;;;21.90;99.90;;;;;;4974429;28;20087;-77
2021/07/15 11:14:43;;;;;;;11.13;6.45;;;21.90;99.90;;;;;;4974894;28;20041;-76
2021/07/15 11:17:21;;;;;;;11.50;6.93;;;21.90;99.90;;;;;;4974585;28;20023;-76
2021/07/15 11:19:56;;;;;;;11.65;6.65;;;21.90;99.90;;;;;;4974488;28;20029;-74
2021/07/15 11:22:36;;;;;;;11.15;7.00;;;21.80;99.90;;;;;;4974854;28;20110;-77
2021/07/15 11:25:07;;;;;;;12.38;6.78;;;21.90;99.90;;;;;;4974346;28;20066;-77
2021/07/15 11:27:59;;;;;;;11.23;6.55;;;21.90;99.90;;;;;;4974518;28;20023;-78
2021/07/15 11:30:34;;;;;;;9.38;5.97;;;21.90;99.90;;;;;;4974472;28;20035;-78
2021/07/15 11:36:08;;;;;;;9.60;6.25;;;21.90;99.90;;;;;;4974717;28;20067;-80
2021/07/15 11:38:41;;;;;;;13.70;6.43;;;21.90;99.90;;;;;;4974680;28;20384;-79
2021/07/15 11:41:13;;;;;;;11.45;6.70;;;21.90;99.90;;;;;;4974166;28;20030;-80
2021/07/15 11:43:47;;;;;;;14.80;6.30;;;22.00;99.90;;;;;;4974222;28;20023;-76
2021/07/15 11:46:17;;;;;;;12.88;6.78;;;21.90;99.90;;;;;;4974518;28;20065;-76
2021/07/15 11:49:18;;;;;;;11.55;6.38;;;22.00;99.90;;;;;;4974451;28;20031;-77
2021/07/15 11:51:45;;;;;;;10.02;5.90;;;21.90;99.90;;;;;;4974459;28;20027;-77
2021/07/15 11:54:32;;;;;;;11.95;5.82;;;21.90;99.90;;;;;;4974430;28;20378;-77
2021/07/15 11:57:13;;;;;;;13.30;6.47;;;22.00;99.90;;;;;;5004978;28;20027;-78
2021/07/15 11:59:43;;;;;;;10.48;6.38;;;22.00;99.90;;;;;;4973975;28;20483;-78
2021/07/15 12:02:21;;;;;;;10.60;6.63;;;22.00;99.90;;;;;;5004944;28;20031;-78
2021/07/15 12:05:10;;;;;;;14.00;6.43;;;22.00;99.90;;;;;;4973815;28;20023;-77
2021/07/15 12:07:39;;;;;;;12.35;6.50;;;22.00;99.90;;;;;;4974024;28;20392;-80
2021/07/15 12:10:11;;;;;;;11.90;6.88;;;22.00;99.90;;;;;;4973433;28;20067;-79
2021/07/15 12:12:39;;;;;;;13.43;6.55;;;22.00;99.90;;;;;;4973729;28;20039;-80
2021/07/15 12:15:07;;;;;;;11.68;6.35;;;22.10;99.90;;;;;;4973581;28;20080;-79
2021/07/15 12:17:33;;;;;;;11.68;6.20;;;22.00;99.90;;;;;;4973649;28;20045;-79
2021/07/15 12:20:00;;;;;;;11.00;6.22;;;22.00;99.90;;;;;;4973459;28;20105;-78
2021/07/15 12:22:40;;;;;;;13.35;6.40;;;22.10;99.90;;;;;;4973640;28;20030;-79
2021/07/15 12:25:18;;;;;;;14.00;6.63;;;22.10;99.90;;;;;;4973345;28;20306;-80
2021/07/15 12:27:46;;;;;;;10.98;6.07;;;22.00;99.90;;;;;;4973885;28;20027;-79
2021/07/15 12:30:12;;;;;;;14.15;6.25;;;22.00;99.90;;;;;;4973600;28;20096;-79
2021/07/15 12:32:39;;;;;;;11.38;5.80;;;22.00;99.90;;;;;;4973373;28;20031;-79
2021/07/15 12:35:13;;;;;;;10.18;6.38;;;22.00;99.90;;;;;;4973008;28;20475;-78
2021/07/15 12:37:39;;;;;;;15.38;6.65;;;22.00;99.90;;;;;;4988089;28;20483;-79
2021/07/15 12:40:06;;;;;;;10.05;5.55;;;22.00;99.90;;;;;;4973002;28;20037;-76
2021/07/15 12:42:32;;;;;;;9.20;5.60;;;22.00;99.90;;;;;;4973190;28;20023;-76
2021/07/15 12:44:58;;;;;;;10.38;5.80;;;22.00;99.90;;;;;;4973111;28;20034;-75
2021/07/15 12:47:23;;;;;;;10.52;5.72;;;22.00;99.90;;;;;;4973205;28;20052;-75
2021/07/15 12:49:49;;;;;;;9.27;5.45;;;22.00;99.90;;;;;;4972922;28;20550;-75
2021/07/15 12:52:17;;;;;;;12.25;5.47;;;22.10;99.90;;;;;;4972872;28;20471;-76
2021/07/15 12:54:48;;;;;;;8.85;5.28;;;22.10;99.90;;;;;;4973370;28;20117;-75